Latest Weather Observations for Williamtown

IDN60901

Issued at 11:51 pm EDT Wednesday 1 February 2023 (issued every 10 minutes, with the page automatically refreshed every 10 minutes)

About weather observations | Map of Sydney area stations | Latest observations for Sydney area | Other Formats
Station Details ID: 061078 Name: WILLIAMTOWN RAAF Lat: -32.79 Lon: 151.84 Height: 7.5 m
Data from the previous 72 hours. | See also: Recent months at Williamtown
Date/Time
EDT
Temp
°C
App
Temp
°C
Dew
Point
°C
Rel
Hum
%
Delta-T
°C
Wind Press
QNH
hPa
Press
MSL
hPa
Rain since
9am
mm
Dir  Spd
km/h
Gust
km/h
Spd
kts
Gust
kts
01/11:30pm 21.6 25.0 20.1 91 1.0 ENE 2 7 1 4 1002.7 1002.7 -
01/11:00pm 21.3 24.9 19.8 91 1.0 CALM 0 0 0 0 1002.8 1002.8 -
01/10:30pm 21.8 25.5 19.9 89 1.2 CALM 0 0 0 0 1002.8 1002.8 -
01/10:00pm 22.5 25.6 20.2 87 1.5 NNE 4 7 2 4 1002.6 1002.6 -
01/09:30pm 22.8 25.8 20.0 84 1.8 ENE 4 9 2 5 1002.2 1002.2 -
01/09:00pm 23.2 25.3 20.2 83 1.9 E 9 11 5 6 1001.9 1001.9 -
01/08:30pm 23.4 24.7 20.2 82 2.1 ESE 13 15 7 8 1001.5 1001.5 -
01/08:00pm 23.6 24.5 20.1 81 2.3 ESE 15 20 8 11 1001.0 1001.0 -
01/07:30pm 24.2 24.5 20.3 79 2.5 ESE 19 28 10 15 1000.9 1000.9 -
01/07:00pm 24.6 24.2 20.1 76 2.9 SE 22 30 12 16 1000.8 1000.8 -
01/06:30pm 25.0 24.4 20.5 76 2.9 SE 24 30 13 16 1000.8 1000.8 -
01/06:00pm 25.3 24.3 20.5 75 3.1 SE 26 32 14 17 1000.6 1000.6 -
01/05:30pm 25.6 24.1 20.2 72 3.5 SSE 28 33 15 18 1000.7 1000.7 -
01/05:00pm 26.0 24.3 20.6 72 3.6 SE 30 35 16 19 1000.9 1000.9 -
01/04:30pm 26.0 24.1 20.1 70 3.8 SE 30 39 16 21 1000.9 1000.9 -
01/04:00pm 26.1 24.2 20.2 70 3.9 SSE 30 35 16 19 1001.1 1001.1 -
01/03:30pm 26.1 24.6 19.5 67 4.3 SSE 26 32 14 17 1001.4 1001.4 -
01/03:00pm 26.6 26.2 20.2 68 4.2 SSE 22 30 12 16 1001.4 1001.4 0.0
01/02:30pm 26.1 25.0 19.5 67 4.3 SSE 24 32 13 17 1001.6 1001.6 -
01/02:00pm 26.9 25.7 19.3 63 4.9 SSE 24 32 13 17 1001.7 1001.7 -
01/01:30pm 26.4 25.1 19.0 63 4.7 S 24 30 13 16 1002.0 1002.0 -
01/01:00pm 26.5 24.9 19.1 64 4.8 S 26 33 14 18 1002.3 1002.3 -
01/12:30pm 26.7 25.7 18.8 62 5.1 S 22 30 12 16 1002.3 1002.3 -
01/12:00pm 27.0 26.7 19.6 64 4.8 SSE 20 30 11 16 1002.7 1002.7 -
01/11:30am 26.3 26.2 17.9 60 5.3 SW 15 26 8 14 1002.9 1002.9 -
01/11:00am 25.5 25.9 18.2 64 4.6 SW 13 20 7 11 1003.1 1003.1 -
01/10:30am 24.9 24.7 17.6 64 4.6 SSW 15 22 8 12 1003.2 1003.2 -
01/10:00am 24.2 - 17.4 65 4.2 - - - - - 1003.2 1003.2 -
01/09:30am 23.7 23.5 17.7 69 3.7 SW 15 22 8 12 1003.5 1003.5 0.0
01/09:00am 23.3 22.9 17.1 68 3.8 WSW 15 20 8 11 1003.5 1003.5 0.0
01/08:30am 22.6 22.2 17.1 71 3.4 WSW 15 20 8 11 1003.3 1003.3 -
01/08:00am 22.1 22.0 17.0 73 3.1 WSW 13 19 7 10 1003.1 1003.1 -
01/07:30am 21.8 21.7 17.0 74 2.9 W 13 17 7 9 1002.8 1002.8 -
01/07:00am 21.3 20.6 16.5 74 2.9 SW 15 19 8 10 1002.7 1002.7 -
01/06:30am 21.3 20.3 16.7 75 2.8 SW 17 28 9 15 1002.4 1002.4 -
01/06:00am 21.3 20.2 16.3 73 3.0 WSW 17 26 9 14 1002.1 1002.1 -
01/05:30am 21.4 19.8 16.1 72 3.2 WSW 19 28 10 15 1001.9 1001.9 -
01/05:00am 21.3 20.2 16.3 73 3.0 W 17 24 9 13 1001.7 1001.7 -
01/04:30am 21.5 20.3 16.2 72 3.2 WSW 17 26 9 14 1001.6 1001.6 -
01/04:00am 21.6 20.6 16.6 73 3.0 WSW 17 26 9 14 1001.6 1001.6 -
01/03:30am 21.7 20.8 16.9 74 2.9 WSW 17 24 9 13 1001.6 1001.6 -
01/03:00am 21.8 21.1 17.4 76 2.7 WSW 17 22 9 12 1001.7 1001.7 -
01/02:30am 21.8 21.9 17.4 76 2.7 WSW 13 17 7 9 1001.8 1001.8 -
01/02:00am 21.8 22.0 17.6 77 2.6 W 13 17 7 9 1001.7 1001.7 -
01/01:30am 22.0 22.4 18.2 79 2.4 SW 13 17 7 9 1001.8 1001.8 -
01/01:00am 22.1 - 18.1 78 2.5 - - - - - 1002.0 1002.0 -
01/12:00am 21.7 22.0 17.9 79 2.4 WSW 13 15 7 8 1002.5 1002.5 -
 
Date/Time
EDT
Temp
°C
App
Temp
°C
Dew
Point
°C
Rel
Hum
%
Delta-T
°C
Wind Press
QNH
hPa
Press
MSL
hPa
Rain since
9am
mm
Dir  Spd
km/h
Gust
km/h
Spd
kts
Gust
kts
31/11:30pm 21.8 22.1 17.8 78 2.5 W 13 17 7 9 1002.6 1002.6 -
31/11:00pm 21.8 22.4 17.6 77 2.6 W 11 15 6 8 1002.8 1002.8 -
31/10:30pm 22.4 21.9 17.8 75 2.9 SW 17 26 9 14 1002.9 1002.9 -
31/10:00pm 22.7 20.3 17.4 72 3.3 SSW 26 32 14 17 1003.1 1003.1 -
31/09:30pm 22.9 19.2 17.4 71 3.4 SSW 33 54 18 29 1003.0 1003.0 -
31/09:25pm 23.0 20.2 17.2 70 3.6 SSW 28 54 15 29 1002.9 1002.9 -
31/09:00pm 22.7 20.5 17.8 74 3.1 SSW 26 32 14 17 1002.7 1002.7 0.0
31/08:30pm 22.6 22.2 18.8 79 2.4 S 19 26 10 14 1002.3 1002.3 -
31/08:00pm 22.9 22.6 19.5 81 2.2 S 20 28 11 15 1002.2 1002.2 -
31/07:30pm 23.4 22.5 19.8 80 2.3 S 24 32 13 17 1002.0 1002.0 -
31/07:00pm 24.1 23.1 19.6 76 2.9 S 24 33 13 18 1001.8 1001.8 -
31/06:30pm 24.3 22.4 19.4 74 3.1 SSE 28 33 15 18 1001.6 1001.6 -
31/06:00pm 25.1 24.5 18.8 68 4.0 S 20 30 11 16 1001.5 1001.5 -
31/05:30pm 25.4 25.1 19.5 70 3.8 SSE 20 28 11 15 1001.6 1001.6 -
31/05:00pm 25.3 23.8 19.4 70 3.8 S 26 32 14 17 1001.7 1001.7 -
31/04:30pm 25.3 23.3 18.2 64 4.5 S 26 37 14 20 1001.9 1001.9 -
31/04:00pm 26.0 23.8 18.7 64 4.7 S 28 39 15 21 1002.2 1002.2 -
31/03:30pm 24.8 21.7 18.5 68 4.0 S 32 39 17 21 1002.3 1002.3 -
31/03:00pm 25.0 22.0 19.1 69 3.8 S 33 46 18 25 1002.5 1002.5 -
31/02:30pm 25.1 22.2 19.2 70 3.8 S 33 44 18 24 1002.7 1002.7 -
31/02:00pm 24.6 21.5 18.8 70 3.7 S 33 46 18 25 1003.1 1003.1 -
31/01:30pm 25.9 23.8 19.8 69 4.0 S 30 39 16 21 1003.3 1003.3 0.0
31/01:00pm 25.7 23.6 19.8 70 3.8 S 30 37 16 20 1003.5 1003.5 0.0
31/12:30pm 25.0 23.9 19.4 71 3.6 S 24 32 13 17 1003.9 1003.9 0.0
31/12:00pm 25.7 26.0 19.6 69 4.0 SSW 17 26 9 14 1004.2 1004.2 0.0
31/11:30am 24.5 24.5 18.9 71 3.6 SW 17 24 9 13 1004.5 1004.5 0.0
31/11:00am 24.0 23.8 18.6 72 3.4 SSW 17 24 9 13 1004.7 1004.7 0.0
31/10:30am 23.6 22.7 18.3 72 3.3 SW 20 30 11 16 1005.0 1005.0 0.0
31/10:00am 23.8 23.7 18.7 73 3.2 SW 17 22 9 12 1004.9 1004.9 0.0
31/09:30am 23.3 23.2 18.8 76 2.8 SW 17 22 9 12 1004.8 1004.8 0.0
31/09:00am 22.9 23.4 19.3 80 2.3 WSW 15 19 8 10 1004.9 1004.9 18.0
31/08:30am 22.1 22.3 18.5 80 2.3 WSW 15 19 8 10 1005.0 1005.0 -
31/08:00am 21.5 22.0 18.3 82 2.0 WSW 13 17 7 9 1004.7 1004.7 -
31/07:30am 21.0 21.5 18.4 85 1.6 WSW 13 17 7 9 1004.7 1004.7 -
31/07:00am 20.9 20.5 18.1 84 1.7 WSW 17 20 9 11 1004.4 1004.4 -
31/06:30am 20.8 20.9 18.4 86 1.5 W 15 19 8 10 1004.2 1004.2 -
31/06:00am 20.8 20.6 18.6 87 1.4 WSW 17 22 9 12 1003.7 1003.7 -
31/05:30am 20.8 20.7 18.7 88 1.3 WSW 17 19 9 10 1003.6 1003.6 -
31/05:00am 20.9 21.2 18.8 88 1.3 WSW 15 20 8 11 1003.6 1003.6 -
31/04:30am 20.9 21.3 19.0 89 1.2 WSW 15 19 8 10 1003.3 1003.3 -
31/04:00am 21.0 21.2 19.3 90 1.1 SW 17 26 9 14 1003.2 1003.2 -
31/03:30am 21.2 22.3 19.7 91 1.0 WSW 13 20 7 11 1003.5 1003.5 -
31/03:00am 21.4 22.2 19.9 91 1.0 W 15 22 8 12 1003.7 1003.7 -
31/02:30am 21.4 22.6 20.0 92 0.9 W 13 19 7 10 1003.8 1003.8 -
31/02:00am 21.6 22.6 20.2 92 0.9 WSW 15 24 8 13 1004.1 1004.1 -
31/01:30am 21.6 22.3 20.4 93 0.8 WSW 17 22 9 12 1004.5 1004.5 -
31/01:00am 21.8 - 20.8 94 0.7 - - - - - 1004.7 1004.7 -
31/12:00am 22.1 22.7 21.1 94 0.7 WSW 19 28 10 15 1005.1 1005.1 -
 
Date/Time
EDT
Temp
°C
App
Temp
°C
Dew
Point
°C
Rel
Hum
%
Delta-T
°C
Wind Press
QNH
hPa
Press
MSL
hPa
Rain since
9am
mm
Dir  Spd
km/h
Gust
km/h
Spd
kts
Gust
kts
30/11:30pm 22.7 24.2 22.0 96 0.5 WSW 17 20 9 11 1005.2 1005.2 -
30/11:10pm 22.9 25.4 22.4 97 0.3 WSW 13 19 7 10 1005.0 1005.0 -
30/11:00pm 22.9 25.4 22.4 97 0.3 SW 13 19 7 10 1005.1 1005.1 -
30/10:30pm 23.3 27.2 23.0 98 0.2 WSW 7 11 4 6 1005.2 1005.2 -
30/10:24pm 23.3 26.9 23.0 98 0.2 WSW 9 11 5 6 1005.3 1005.3 -
30/10:00pm 23.3 28.1 22.8 97 0.3 SW 2 7 1 4 1005.4 1005.4 -
30/09:30pm 23.3 27.7 22.8 97 0.3 W 4 7 2 4 1005.5 1005.5 -
30/09:00pm 23.5 27.3 22.8 96 0.5 NW 7 9 4 5 1005.2 1005.2 2.0
30/08:30pm 23.5 27.3 22.8 96 0.5 NW 7 9 4 5 1005.2 1005.2 -
30/08:00pm 23.5 27.9 22.8 96 0.5 N 4 11 2 6 1005.3 1005.3 -
30/07:30pm 23.6 27.1 22.8 95 0.5 NNW 9 11 5 6 1005.7 1005.7 -
30/07:00pm 23.6 26.3 22.8 95 0.5 NE 13 19 7 10 1005.1 1005.1 -
30/06:30pm 23.8 26.5 22.8 94 0.7 NNE 13 19 7 10 1005.6 1005.6 -
30/06:00pm 23.9 26.9 22.7 93 0.8 NNE 11 15 6 8 1005.3 1005.3 -
30/05:30pm 24.0 26.3 22.8 93 0.8 NE 15 20 8 11 1005.2 1005.2 -
30/05:00pm 24.1 26.6 23.1 94 0.7 ENE 15 19 8 10 1005.8 1005.8 -
30/04:30pm 23.8 27.1 22.6 93 0.8 NE 9 11 5 6 1006.5 1006.5 -
30/04:00pm 23.7 26.7 22.7 94 0.7 NE 11 13 6 7 1006.6 1006.6 -
30/03:30pm 23.8 27.3 22.8 94 0.7 NNE 9 13 5 7 1007.3 1007.3 -
30/03:00pm 23.6 27.8 22.4 93 0.8 ENE 4 11 2 6 1007.9 1007.9 -
30/02:30pm 23.6 26.3 22.2 92 0.9 N 11 13 6 7 1008.5 1008.4 -
30/02:00pm 23.8 27.1 21.9 89 1.3 NNW 7 11 4 6 1008.7 1008.6 -
30/01:30pm 23.7 25.4 21.6 88 1.4 N 15 22 8 12 1008.3 1008.3 -
30/01:00pm 23.6 26.0 22.2 92 0.9 N 13 19 7 10 1008.7 1008.6 -
30/12:30pm 22.3 23.3 21.1 93 0.8 NNE 17 20 9 11 1009.5 1009.4 -
30/12:00pm 22.5 24.6 21.7 95 0.5 N 13 17 7 9 1010.4 1010.3 -
30/11:30am 22.4 24.7 21.4 94 0.7 NNE 11 15 6 8 1010.9 1010.8 -
30/11:14am 22.6 25.1 21.8 95 0.5 NNE 11 13 6 7 1011.1 1011.0 -
30/11:00am 22.5 25.4 21.7 95 0.5 NNE 9 11 5 6 1011.6 1011.5 -
30/10:54am 22.5 25.6 21.5 94 0.7 N 7 11 4 6 1011.7 1011.6 -
30/10:30am 22.5 26.9 21.3 93 0.8 CALM 0 0 0 0 1011.9 1011.8 2.8
30/10:00am 22.8 26.2 22.0 95 0.5 SW 7 9 4 5 1012.1 1012.0 1.8
30/09:30am 22.6 24.4 21.8 95 0.5 SSE 15 20 8 11 1011.6 1011.5 1.0
30/09:00am 22.3 24.3 21.5 95 0.5 S 13 19 7 10 1011.8 1011.7 3.4
30/08:30am 22.4 24.0 21.4 94 0.7 SSW 15 19 8 10 1011.4 1011.3 2.4
30/08:00am 22.1 26.3 20.9 93 0.8 CALM 0 0 0 0 1010.5 1010.4 2.4
30/07:30am 21.9 24.3 20.9 94 0.7 NNW 9 13 5 7 1010.0 1009.9 2.4
30/07:00am 21.8 23.5 21.0 95 0.5 NNE 13 22 7 12 1009.4 1009.3 2.4
30/06:30am 21.7 23.4 20.9 95 0.5 NNE 13 17 7 9 1009.4 1009.3 2.4
30/06:00am 21.8 24.0 21.1 96 0.5 NE 11 19 6 10 1009.7 1009.6 2.4
30/05:30am 21.9 24.6 21.4 97 0.3 N 9 11 5 6 1010.4 1010.3 2.4
30/05:00am 21.9 26.2 21.1 95 0.5 CALM 0 0 0 0 1010.3 1010.2 2.4
30/04:30am 21.8 26.1 21.1 96 0.5 CALM 0 6 0 3 1010.4 1010.3 2.2
30/04:00am 22.1 25.1 21.3 95 0.5 SW 7 11 4 6 1011.0 1010.9 2.0
30/03:30am 22.1 25.2 21.4 96 0.5 NNW 7 9 4 5 1011.3 1011.2 2.0
30/03:00am 22.1 24.8 21.3 95 0.5 N 9 11 5 6 1011.4 1011.3 2.0
30/02:30am 22.0 25.0 21.3 96 0.5 NNW 7 11 4 6 1011.7 1011.6 2.0
30/02:00am 22.1 26.1 21.3 95 0.5 NNW 2 7 1 4 1012.1 1012.0 2.0
30/01:30am 22.1 26.4 21.1 94 0.7 CALM 0 0 0 0 1012.3 1012.2 2.0
30/01:00am 22.2 26.6 21.4 95 0.5 CALM 0 6 0 3 1012.5 1012.4 2.0
30/12:30am 22.3 26.8 21.5 95 0.5 CALM 0 0 0 0 1012.9 1012.8 2.0
30/12:00am 22.0 25.0 21.2 95 0.5 N 7 11 4 6 1013.0 1012.9 2.0

Latest Capital City Observations: Canberra | Sydney | Melbourne | Brisbane | Adelaide | Perth | Hobart | Darwin

Other formats

Comma delimited format used in spreadsheet applications
http://www.bom.gov.au/fwo/IDN60901/IDN60901.94776.axf

JavaScript Object Notation format (JSON) in row-major order
http://www.bom.gov.au/fwo/IDN60901/IDN60901.94776.json

Data quality

Most of these data are generated automatically and are frequently updated. Quality checks on data are not normally performed. It is possible for incorrect values to appear. Refer to information at About Latest Weather Observations and please check the disclaimer before using these data.